sensor_id;sensor_type;location;lat;lon;timestamp;P1;durP1;ratioP1;P2;durP2;ratioP2
56399;SDS011;42298;53.638;9.876;2022-07-19T00:02:18;14.00;;;7.97;;
56399;SDS011;42298;53.638;9.876;2022-07-19T00:04:44;11.95;;;7.43;;
56399;SDS011;42298;53.638;9.876;2022-07-19T00:07:12;11.93;;;7.22;;
56399;SDS011;42298;53.638;9.876;2022-07-19T00:09:38;12.68;;;7.78;;
56399;SDS011;42298;53.638;9.876;2022-07-19T00:12:03;13.50;;;7.85;;
56399;SDS011;42298;53.638;9.876;2022-07-19T00:14:28;12.20;;;7.43;;
56399;SDS011;42298;53.638;9.876;2022-07-19T00:17:00;12.23;;;7.18;;
56399;SDS011;42298;53.638;9.876;2022-07-19T00:19:25;11.88;;;7.38;;
56399;SDS011;42298;53.638;9.876;2022-07-19T00:21:50;11.88;;;6.85;;
56399;SDS011;42298;53.638;9.876;2022-07-19T00:24:16;11.95;;;7.20;;
56399;SDS011;42298;53.638;9.876;2022-07-19T00:26:41;12.15;;;6.75;;
56399;SDS011;42298;53.638;9.876;2022-07-19T00:29:06;11.20;;;6.63;;
56399;SDS011;42298;53.638;9.876;2022-07-19T00:31:32;12.82;;;7.20;;
56399;SDS011;42298;53.638;9.876;2022-07-19T00:33:57;12.38;;;7.10;;
56399;SDS011;42298;53.638;9.876;2022-07-19T00:36:22;12.93;;;7.38;;
56399;SDS011;42298;53.638;9.876;2022-07-19T00:38:48;11.57;;;7.15;;
56399;SDS011;42298;53.638;9.876;2022-07-19T00:41:13;12.77;;;7.78;;
56399;SDS011;42298;53.638;9.876;2022-07-19T00:43:40;12.30;;;7.30;;
56399;SDS011;42298;53.638;9.876;2022-07-19T00:46:15;12.52;;;7.22;;
56399;SDS011;42298;53.638;9.876;2022-07-19T00:48:42;12.60;;;7.35;;
56399;SDS011;42298;53.638;9.876;2022-07-19T00:51:08;14.45;;;8.60;;
56399;SDS011;42298;53.638;9.876;2022-07-19T00:53:35;12.25;;;7.70;;
56399;SDS011;42298;53.638;9.876;2022-07-19T00:56:03;13.18;;;7.18;;
56399;SDS011;42298;53.638;9.876;2022-07-19T00:58:31;11.70;;;7.10;;
56399;SDS011;42298;53.638;9.876;2022-07-19T01:00:58;11.00;;;6.82;;
56399;SDS011;42298;53.638;9.876;2022-07-19T01:03:24;12.25;;;7.82;;
56399;SDS011;42298;53.638;9.876;2022-07-19T01:05:50;12.90;;;7.70;;
56399;SDS011;42298;53.638;9.876;2022-07-19T01:08:16;12.30;;;7.43;;
56399;SDS011;42298;53.638;9.876;2022-07-19T01:10:45;11.40;;;6.80;;
56399;SDS011;42298;53.638;9.876;2022-07-19T01:13:13;12.13;;;7.72;;
56399;SDS011;42298;53.638;9.876;2022-07-19T01:15:39;12.23;;;7.60;;
56399;SDS011;42298;53.638;9.876;2022-07-19T01:18:06;13.45;;;8.48;;
56399;SDS011;42298;53.638;9.876;2022-07-19T01:20:31;13.32;;;8.02;;
56399;SDS011;42298;53.638;9.876;2022-07-19T01:22:57;12.38;;;7.97;;
56399;SDS011;42298;53.638;9.876;2022-07-19T01:25:23;12.85;;;7.72;;
56399;SDS011;42298;53.638;9.876;2022-07-19T01:27:50;13.00;;;7.53;;
56399;SDS011;42298;53.638;9.876;2022-07-19T01:30:16;12.73;;;7.53;;
56399;SDS011;42298;53.638;9.876;2022-07-19T01:32:44;14.40;;;7.93;;
56399;SDS011;42298;53.638;9.876;2022-07-19T01:35:10;12.93;;;8.60;;
56399;SDS011;42298;53.638;9.876;2022-07-19T01:37:36;12.68;;;8.13;;
56399;SDS011;42298;53.638;9.876;2022-07-19T01:40:02;12.30;;;7.53;;
56399;SDS011;42298;53.638;9.876;2022-07-19T01:42:28;13.20;;;7.43;;
56399;SDS011;42298;53.638;9.876;2022-07-19T01:44:54;13.90;;;7.30;;
56399;SDS011;42298;53.638;9.876;2022-07-19T01:47:19;12.52;;;7.70;;
56399;SDS011;42298;53.638;9.876;2022-07-19T01:49:44;12.50;;;7.72;;
56399;SDS011;42298;53.638;9.876;2022-07-19T01:52:10;13.00;;;7.85;;
56399;SDS011;42298;53.638;9.876;2022-07-19T01:54:35;12.95;;;7.22;;
56399;SDS011;42298;53.638;9.876;2022-07-19T01:57:00;13.20;;;7.88;;
56399;SDS011;42298;53.638;9.876;2022-07-19T01:59:25;12.00;;;7.75;;
56399;SDS011;42298;53.638;9.876;2022-07-19T02:01:51;12.90;;;7.63;;
56399;SDS011;42298;53.638;9.876;2022-07-19T02:04:16;14.90;;;8.35;;
56399;SDS011;42298;53.638;9.876;2022-07-19T02:06:41;12.15;;;7.63;;
56399;SDS011;42298;53.638;9.876;2022-07-19T02:09:07;11.90;;;7.57;;
56399;SDS011;42298;53.638;9.876;2022-07-19T02:11:32;12.93;;;7.43;;
56399;SDS011;42298;53.638;9.876;2022-07-19T02:14:01;12.07;;;7.22;;
56399;SDS011;42298;53.638;9.876;2022-07-19T02:16:27;12.13;;;7.15;;
56399;SDS011;42298;53.638;9.876;2022-07-19T02:18:52;12.63;;;7.18;;
56399;SDS011;42298;53.638;9.876;2022-07-19T02:21:18;12.43;;;7.95;;
56399;SDS011;42298;53.638;9.876;2022-07-19T02:23:43;13.07;;;8.00;;
56399;SDS011;42298;53.638;9.876;2022-07-19T02:26:09;12.45;;;7.82;;
56399;SDS011;42298;53.638;9.876;2022-07-19T02:28:34;13.07;;;7.20;;
56399;SDS011;42298;53.638;9.876;2022-07-19T02:30:59;13.18;;;7.47;;
56399;SDS011;42298;53.638;9.876;2022-07-19T02:33:25;13.27;;;7.93;;
56399;SDS011;42298;53.638;9.876;2022-07-19T02:35:50;12.65;;;7.38;;
56399;SDS011;42298;53.638;9.876;2022-07-19T02:38:15;12.77;;;8.02;;
56399;SDS011;42298;53.638;9.876;2022-07-19T02:40:41;12.52;;;7.93;;
56399;SDS011;42298;53.638;9.876;2022-07-19T02:43:07;13.10;;;7.65;;
56399;SDS011;42298;53.638;9.876;2022-07-19T02:45:32;15.13;;;8.30;;
56399;SDS011;42298;53.638;9.876;2022-07-19T02:47:57;13.20;;;8.48;;
56399;SDS011;42298;53.638;9.876;2022-07-19T02:50:23;12.95;;;7.18;;
56399;SDS011;42298;53.638;9.876;2022-07-19T02:52:48;13.35;;;7.45;;
56399;SDS011;42298;53.638;9.876;2022-07-19T02:55:13;11.98;;;7.45;;
56399;SDS011;42298;53.638;9.876;2022-07-19T02:57:39;12.55;;;7.45;;
56399;SDS011;42298;53.638;9.876;2022-07-19T03:00:07;13.75;;;8.23;;
56399;SDS011;42298;53.638;9.876;2022-07-19T03:02:37;12.75;;;8.10;;
56399;SDS011;42298;53.638;9.876;2022-07-19T03:05:03;12.55;;;7.30;;
56399;SDS011;42298;53.638;9.876;2022-07-19T03:07:29;11.48;;;6.88;;
56399;SDS011;42298;53.638;9.876;2022-07-19T03:09:54;12.63;;;7.53;;
56399;SDS011;42298;53.638;9.876;2022-07-19T03:12:25;13.40;;;8.32;;
56399;SDS011;42298;53.638;9.876;2022-07-19T03:14:51;11.90;;;7.18;;
56399;SDS011;42298;53.638;9.876;2022-07-19T03:17:16;11.35;;;7.07;;
56399;SDS011;42298;53.638;9.876;2022-07-19T03:19:43;13.10;;;7.30;;
56399;SDS011;42298;53.638;9.876;2022-07-19T03:22:08;12.27;;;7.90;;
56399;SDS011;42298;53.638;9.876;2022-07-19T03:24:34;13.32;;;7.85;;
56399;SDS011;42298;53.638;9.876;2022-07-19T03:26:59;11.75;;;6.97;;
56399;SDS011;42298;53.638;9.876;2022-07-19T03:29:24;12.15;;;7.10;;
56399;SDS011;42298;53.638;9.876;2022-07-19T03:31:49;13.10;;;8.07;;
56399;SDS011;42298;53.638;9.876;2022-07-19T03:34:15;12.02;;;7.18;;
56399;SDS011;42298;53.638;9.876;2022-07-19T03:36:40;12.70;;;7.88;;
56399;SDS011;42298;53.638;9.876;2022-07-19T03:39:06;12.45;;;7.43;;
56399;SDS011;42298;53.638;9.876;2022-07-19T03:41:31;13.38;;;7.65;;
56399;SDS011;42298;53.638;9.876;2022-07-19T03:43:57;13.32;;;7.15;;
56399;SDS011;42298;53.638;9.876;2022-07-19T03:46:22;12.23;;;7.13;;
56399;SDS011;42298;53.638;9.876;2022-07-19T03:48:48;12.93;;;7.45;;
56399;SDS011;42298;53.638;9.876;2022-07-19T03:51:13;14.05;;;8.18;;
56399;SDS011;42298;53.638;9.876;2022-07-19T03:53:39;15.05;;;8.15;;
56399;SDS011;42298;53.638;9.876;2022-07-19T03:56:04;15.75;;;8.07;;
56399;SDS011;42298;53.638;9.876;2022-07-19T03:58:30;12.43;;;7.55;;
56399;SDS011;42298;53.638;9.876;2022-07-19T04:00:56;11.88;;;7.10;;
56399;SDS011;42298;53.638;9.876;2022-07-19T04:03:21;14.38;;;8.45;;
56399;SDS011;42298;53.638;9.876;2022-07-19T04:05:47;12.15;;;7.50;;
56399;SDS011;42298;53.638;9.876;2022-07-19T04:08:12;14.27;;;8.10;;
56399;SDS011;42298;53.638;9.876;2022-07-19T04:10:38;12.50;;;7.75;;
56399;SDS011;42298;53.638;9.876;2022-07-19T04:13:03;13.23;;;7.50;;
56399;SDS011;42298;53.638;9.876;2022-07-19T04:15:28;11.32;;;7.38;;
56399;SDS011;42298;53.638;9.876;2022-07-19T04:17:54;13.25;;;7.70;;
56399;SDS011;42298;53.638;9.876;2022-07-19T04:20:19;12.52;;;7.53;;
56399;SDS011;42298;53.638;9.876;2022-07-19T04:22:44;13.80;;;8.38;;
56399;SDS011;42298;53.638;9.876;2022-07-19T04:25:10;11.73;;;7.07;;
56399;SDS011;42298;53.638;9.876;2022-07-19T04:27:35;12.13;;;7.50;;
56399;SDS011;42298;53.638;9.876;2022-07-19T04:30:01;12.40;;;7.90;;
56399;SDS011;42298;53.638;9.876;2022-07-19T04:32:27;13.68;;;7.72;;
56399;SDS011;42298;53.638;9.876;2022-07-19T04:34:54;13.90;;;8.13;;
56399;SDS011;42298;53.638;9.876;2022-07-19T04:37:19;13.10;;;8.20;;
56399;SDS011;42298;53.638;9.876;2022-07-19T04:39:44;13.38;;;8.07;;
56399;SDS011;42298;53.638;9.876;2022-07-19T04:42:10;13.35;;;8.25;;
56399;SDS011;42298;53.638;9.876;2022-07-19T04:44:35;13.30;;;7.45;;
56399;SDS011;42298;53.638;9.876;2022-07-19T04:47:01;12.90;;;7.53;;
56399;SDS011;42298;53.638;9.876;2022-07-19T04:49:27;12.00;;;7.43;;
56399;SDS011;42298;53.638;9.876;2022-07-19T04:51:54;11.77;;;7.22;;
56399;SDS011;42298;53.638;9.876;2022-07-19T04:54:19;13.15;;;8.20;;
56399;SDS011;42298;53.638;9.876;2022-07-19T04:56:44;12.27;;;7.80;;
56399;SDS011;42298;53.638;9.876;2022-07-19T04:59:10;13.27;;;7.88;;
56399;SDS011;42298;53.638;9.876;2022-07-19T05:01:35;11.18;;;7.15;;
56399;SDS011;42298;53.638;9.876;2022-07-19T05:04:01;11.55;;;7.15;;
56399;SDS011;42298;53.638;9.876;2022-07-19T05:06:26;13.88;;;7.63;;
56399;SDS011;42298;53.638;9.876;2022-07-19T05:08:52;11.20;;;7.35;;
56399;SDS011;42298;53.638;9.876;2022-07-19T05:11:18;10.90;;;7.03;;
56399;SDS011;42298;53.638;9.876;2022-07-19T05:13:43;12.02;;;7.35;;
56399;SDS011;42298;53.638;9.876;2022-07-19T05:16:09;11.48;;;7.60;;
56399;SDS011;42298;53.638;9.876;2022-07-19T05:18:34;12.52;;;7.07;;
56399;SDS011;42298;53.638;9.876;2022-07-19T05:20:59;12.30;;;6.72;;
56399;SDS011;42298;53.638;9.876;2022-07-19T05:23:25;11.57;;;7.53;;
56399;SDS011;42298;53.638;9.876;2022-07-19T05:25:50;12.13;;;7.50;;
56399;SDS011;42298;53.638;9.876;2022-07-19T05:28:15;11.95;;;6.70;;
56399;SDS011;42298;53.638;9.876;2022-07-19T05:30:41;12.77;;;7.50;;
56399;SDS011;42298;53.638;9.876;2022-07-19T05:33:08;11.93;;;6.68;;
56399;SDS011;42298;53.638;9.876;2022-07-19T05:35:34;12.30;;;7.22;;
56399;SDS011;42298;53.638;9.876;2022-07-19T05:37:59;11.10;;;7.00;;
56399;SDS011;42298;53.638;9.876;2022-07-19T05:40:24;11.70;;;6.88;;
56399;SDS011;42298;53.638;9.876;2022-07-19T05:42:49;10.35;;;6.82;;
56399;SDS011;42298;53.638;9.876;2022-07-19T05:45:15;12.85;;;6.60;;
56399;SDS011;42298;53.638;9.876;2022-07-19T05:47:40;12.95;;;7.22;;
56399;SDS011;42298;53.638;9.876;2022-07-19T05:50:05;11.55;;;7.38;;
56399;SDS011;42298;53.638;9.876;2022-07-19T05:52:31;12.50;;;7.10;;
56399;SDS011;42298;53.638;9.876;2022-07-19T05:54:56;10.90;;;6.57;;
56399;SDS011;42298;53.638;9.876;2022-07-19T05:57:22;13.60;;;7.38;;
56399;SDS011;42298;53.638;9.876;2022-07-19T05:59:47;10.80;;;7.10;;
56399;SDS011;42298;53.638;9.876;2022-07-19T06:02:12;12.10;;;6.65;;
56399;SDS011;42298;53.638;9.876;2022-07-19T06:04:37;11.77;;;6.78;;
56399;SDS011;42298;53.638;9.876;2022-07-19T06:07:03;11.13;;;6.65;;
56399;SDS011;42298;53.638;9.876;2022-07-19T06:09:28;13.65;;;7.22;;
56399;SDS011;42298;53.638;9.876;2022-07-19T06:11:53;12.25;;;6.68;;
56399;SDS011;42298;53.638;9.876;2022-07-19T06:14:19;13.00;;;7.30;;
56399;SDS011;42298;53.638;9.876;2022-07-19T06:16:45;10.60;;;6.60;;
56399;SDS011;42298;53.638;9.876;2022-07-19T06:19:11;14.35;;;7.53;;
56399;SDS011;42298;53.638;9.876;2022-07-19T06:21:37;14.13;;;6.95;;
56399;SDS011;42298;53.638;9.876;2022-07-19T06:24:02;13.63;;;6.75;;
56399;SDS011;42298;53.638;9.876;2022-07-19T06:26:28;12.38;;;6.60;;
56399;SDS011;42298;53.638;9.876;2022-07-19T06:28:54;11.50;;;6.60;;
56399;SDS011;42298;53.638;9.876;2022-07-19T06:31:19;12.23;;;7.32;;
56399;SDS011;42298;53.638;9.876;2022-07-19T06:33:46;10.93;;;6.63;;
56399;SDS011;42298;53.638;9.876;2022-07-19T06:36:13;10.90;;;6.20;;
56399;SDS011;42298;53.638;9.876;2022-07-19T06:38:38;12.30;;;6.53;;
56399;SDS011;42298;53.638;9.876;2022-07-19T06:41:04;12.57;;;6.72;;
56399;SDS011;42298;53.638;9.876;2022-07-19T06:43:30;11.82;;;6.93;;
56399;SDS011;42298;53.638;9.876;2022-07-19T06:45:55;11.82;;;6.50;;
56399;SDS011;42298;53.638;9.876;2022-07-19T06:48:21;14.32;;;6.35;;
56399;SDS011;42298;53.638;9.876;2022-07-19T06:50:46;11.43;;;6.80;;
56399;SDS011;42298;53.638;9.876;2022-07-19T06:53:12;10.82;;;6.38;;
56399;SDS011;42298;53.638;9.876;2022-07-19T06:55:37;9.52;;;5.93;;
56399;SDS011;42298;53.638;9.876;2022-07-19T06:58:02;10.70;;;5.97;;
56399;SDS011;42298;53.638;9.876;2022-07-19T07:00:28;11.32;;;6.25;;
56399;SDS011;42298;53.638;9.876;2022-07-19T07:02:53;11.65;;;6.20;;
56399;SDS011;42298;53.638;9.876;2022-07-19T07:05:18;12.43;;;6.20;;
56399;SDS011;42298;53.638;9.876;2022-07-19T07:07:44;12.32;;;6.30;;
56399;SDS011;42298;53.638;9.876;2022-07-19T07:10:09;11.60;;;5.85;;
56399;SDS011;42298;53.638;9.876;2022-07-19T07:12:35;11.55;;;6.15;;
56399;SDS011;42298;53.638;9.876;2022-07-19T07:15:01;10.75;;;6.03;;
56399;SDS011;42298;53.638;9.876;2022-07-19T07:17:27;10.60;;;5.85;;
56399;SDS011;42298;53.638;9.876;2022-07-19T07:19:53;12.60;;;6.80;;
56399;SDS011;42298;53.638;9.876;2022-07-19T07:22:18;13.40;;;5.75;;
56399;SDS011;42298;53.638;9.876;2022-07-19T07:24:43;10.48;;;6.13;;
56399;SDS011;42298;53.638;9.876;2022-07-19T07:27:09;10.48;;;5.72;;
56399;SDS011;42298;53.638;9.876;2022-07-19T07:29:34;10.00;;;5.70;;
56399;SDS011;42298;53.638;9.876;2022-07-19T07:32:00;10.27;;;5.82;;
56399;SDS011;42298;53.638;9.876;2022-07-19T07:34:28;9.48;;;5.72;;
56399;SDS011;42298;53.638;9.876;2022-07-19T07:36:53;12.57;;;5.78;;
56399;SDS011;42298;53.638;9.876;2022-07-19T07:39:18;10.32;;;5.82;;
56399;SDS011;42298;53.638;9.876;2022-07-19T07:41:44;12.45;;;5.80;;
56399;SDS011;42298;53.638;9.876;2022-07-19T07:44:09;10.10;;;5.78;;
56399;SDS011;42298;53.638;9.876;2022-07-19T07:46:34;12.63;;;5.72;;
56399;SDS011;42298;53.638;9.876;2022-07-19T07:49:00;9.30;;;4.78;;
56399;SDS011;42298;53.638;9.876;2022-07-19T07:51:25;11.95;;;5.60;;
56399;SDS011;42298;53.638;9.876;2022-07-19T07:53:51;9.95;;;5.70;;
56399;SDS011;42298;53.638;9.876;2022-07-19T07:56:19;9.52;;;5.50;;
56399;SDS011;42298;53.638;9.876;2022-07-19T07:58:44;11.65;;;6.15;;
56399;SDS011;42298;53.638;9.876;2022-07-19T08:01:09;11.63;;;5.70;;
56399;SDS011;42298;53.638;9.876;2022-07-19T08:03:37;11.23;;;5.40;;
56399;SDS011;42298;53.638;9.876;2022-07-19T08:06:02;16.77;;;5.57;;
56399;SDS011;42298;53.638;9.876;2022-07-19T08:08:28;10.95;;;4.60;;
56399;SDS011;42298;53.638;9.876;2022-07-19T08:10:53;9.32;;;4.82;;
56399;SDS011;42298;53.638;9.876;2022-07-19T08:13:19;16.55;;;5.20;;
56399;SDS011;42298;53.638;9.876;2022-07-19T08:15:46;10.00;;;5.22;;
56399;SDS011;42298;53.638;9.876;2022-07-19T08:18:11;9.88;;;4.80;;
56399;SDS011;42298;53.638;9.876;2022-07-19T08:20:36;8.38;;;4.80;;
56399;SDS011;42298;53.638;9.876;2022-07-19T08:23:02;11.10;;;5.28;;
56399;SDS011;42298;53.638;9.876;2022-07-19T08:25:27;8.90;;;5.15;;
56399;SDS011;42298;53.638;9.876;2022-07-19T08:27:53;12.40;;;5.00;;
56399;SDS011;42298;53.638;9.876;2022-07-19T08:30:18;11.48;;;5.40;;
56399;SDS011;42298;53.638;9.876;2022-07-19T08:32:43;12.45;;;5.05;;
56399;SDS011;42298;53.638;9.876;2022-07-19T08:35:09;11.80;;;5.22;;
56399;SDS011;42298;53.638;9.876;2022-07-19T08:37:35;8.80;;;4.63;;
56399;SDS011;42298;53.638;9.876;2022-07-19T08:40:00;13.13;;;5.43;;
56399;SDS011;42298;53.638;9.876;2022-07-19T08:42:26;15.20;;;5.68;;
56399;SDS011;42298;53.638;9.876;2022-07-19T08:44:53;10.02;;;5.10;;
56399;SDS011;42298;53.638;9.876;2022-07-19T08:47:19;10.38;;;5.05;;
56399;SDS011;42298;53.638;9.876;2022-07-19T08:49:45;9.07;;;5.10;;
56399;SDS011;42298;53.638;9.876;2022-07-19T08:52:12;11.52;;;5.07;;
56399;SDS011;42298;53.638;9.876;2022-07-19T08:54:38;9.15;;;5.03;;
56399;SDS011;42298;53.638;9.876;2022-07-19T08:57:04;10.27;;;5.60;;
56399;SDS011;42298;53.638;9.876;2022-07-19T08:59:48;8.57;;;4.65;;
56399;SDS011;42298;53.638;9.876;2022-07-19T09:02:14;10.38;;;4.65;;
56399;SDS011;42298;53.638;9.876;2022-07-19T09:04:39;9.40;;;4.85;;
56399;SDS011;42298;53.638;9.876;2022-07-19T09:07:05;11.75;;;5.18;;
56399;SDS011;42298;53.638;9.876;2022-07-19T09:09:31;10.52;;;4.95;;
56399;SDS011;42298;53.638;9.876;2022-07-19T09:12:00;9.63;;;5.10;;
56399;SDS011;42298;53.638;9.876;2022-07-19T09:14:30;10.52;;;4.82;;
56399;SDS011;42298;53.638;9.876;2022-07-19T09:19:34;12.02;;;5.32;;
56399;SDS011;42298;53.638;9.876;2022-07-19T09:22:05;8.98;;;4.45;;
56399;SDS011;42298;53.638;9.876;2022-07-19T09:24:34;8.38;;;4.45;;
56399;SDS011;42298;53.638;9.876;2022-07-19T09:27:03;8.07;;;4.63;;
56399;SDS011;42298;53.638;9.876;2022-07-19T09:29:33;7.63;;;4.32;;
56399;SDS011;42298;53.638;9.876;2022-07-19T09:32:22;9.57;;;4.80;;
56399;SDS011;42298;53.638;9.876;2022-07-19T09:39:44;6.47;;;3.85;;
56399;SDS011;42298;53.638;9.876;2022-07-19T09:42:12;9.43;;;4.70;;
56399;SDS011;42298;53.638;9.876;2022-07-19T09:44:39;11.23;;;4.45;;
56399;SDS011;42298;53.638;9.876;2022-07-19T09:47:04;7.78;;;4.20;;
56399;SDS011;42298;53.638;9.876;2022-07-19T09:49:30;11.32;;;4.40;;
56399;SDS011;42298;53.638;9.876;2022-07-19T09:51:55;8.15;;;4.53;;
56399;SDS011;42298;53.638;9.876;2022-07-19T09:54:22;8.20;;;4.20;;
56399;SDS011;42298;53.638;9.876;2022-07-19T09:56:52;7.47;;;4.40;;
56399;SDS011;42298;53.638;9.876;2022-07-19T09:59:19;8.93;;;4.55;;
56399;SDS011;42298;53.638;9.876;2022-07-19T10:01:46;11.23;;;4.20;;
56399;SDS011;42298;53.638;9.876;2022-07-19T10:04:16;7.68;;;4.18;;
56399;SDS011;42298;53.638;9.876;2022-07-19T10:06:43;7.30;;;4.20;;
56399;SDS011;42298;53.638;9.876;2022-07-19T10:09:10;6.97;;;4.07;;
56399;SDS011;42298;53.638;9.876;2022-07-19T10:11:37;10.20;;;4.35;;
56399;SDS011;42298;53.638;9.876;2022-07-19T10:14:03;6.35;;;3.88;;
56399;SDS011;42298;53.638;9.876;2022-07-19T10:19:33;9.70;;;3.75;;
56399;SDS011;42298;53.638;9.876;2022-07-19T10:22:03;7.40;;;4.20;;
56399;SDS011;42298;53.638;9.876;2022-07-19T10:27:15;8.20;;;3.97;;
56399;SDS011;42298;53.638;9.876;2022-07-19T10:32:38;7.18;;;4.38;;
56399;SDS011;42298;53.638;9.876;2022-07-19T10:35:20;7.70;;;3.80;;
56399;SDS011;42298;53.638;9.876;2022-07-19T10:37:57;7.78;;;3.75;;
56399;SDS011;42298;53.638;9.876;2022-07-19T10:48:21;5.10;;;3.05;;
56399;SDS011;42298;53.638;9.876;2022-07-19T10:51:00;6.90;;;3.30;;
56399;SDS011;42298;53.638;9.876;2022-07-19T10:56:16;6.10;;;3.38;;
56399;SDS011;42298;53.638;9.876;2022-07-19T10:58:49;5.32;;;2.88;;
56399;SDS011;42298;53.638;9.876;2022-07-19T11:01:16;4.70;;;2.83;;
56399;SDS011;42298;53.638;9.876;2022-07-19T11:03:43;7.28;;;3.47;;
56399;SDS011;42298;53.638;9.876;2022-07-19T11:06:22;7.65;;;3.30;;
56399;SDS011;42298;53.638;9.876;2022-07-19T11:08:52;7.30;;;3.30;;
56399;SDS011;42298;53.638;9.876;2022-07-19T11:11:22;9.88;;;3.60;;
56399;SDS011;42298;53.638;9.876;2022-07-19T11:13:51;6.05;;;3.10;;
56399;SDS011;42298;53.638;9.876;2022-07-19T11:16:18;6.50;;;3.17;;
56399;SDS011;42298;53.638;9.876;2022-07-19T11:18:44;5.93;;;3.30;;
56399;SDS011;42298;53.638;9.876;2022-07-19T11:21:10;6.97;;;3.63;;
56399;SDS011;42298;53.638;9.876;2022-07-19T11:23:38;5.00;;;3.28;;
56399;SDS011;42298;53.638;9.876;2022-07-19T11:26:09;6.30;;;3.53;;
56399;SDS011;42298;53.638;9.876;2022-07-19T11:28:40;6.35;;;3.08;;
56399;SDS011;42298;53.638;9.876;2022-07-19T11:31:24;6.28;;;3.10;;
56399;SDS011;42298;53.638;9.876;2022-07-19T11:33:54;8.25;;;3.85;;
56399;SDS011;42298;53.638;9.876;2022-07-19T11:36:21;6.95;;;3.50;;
56399;SDS011;42298;53.638;9.876;2022-07-19T11:38:48;7.93;;;3.47;;
56399;SDS011;42298;53.638;9.876;2022-07-19T11:41:19;5.68;;;3.40;;
56399;SDS011;42298;53.638;9.876;2022-07-19T11:46:22;8.23;;;3.30;;
56399;SDS011;42298;53.638;9.876;2022-07-19T11:48:49;7.68;;;3.70;;
56399;SDS011;42298;53.638;9.876;2022-07-19T11:51:23;7.10;;;3.03;;
56399;SDS011;42298;53.638;9.876;2022-07-19T11:53:49;6.05;;;3.05;;
56399;SDS011;42298;53.638;9.876;2022-07-19T11:56:22;6.53;;;3.25;;
56399;SDS011;42298;53.638;9.876;2022-07-19T11:58:50;7.13;;;3.45;;
56399;SDS011;42298;53.638;9.876;2022-07-19T12:01:30;4.68;;;2.78;;
56399;SDS011;42298;53.638;9.876;2022-07-19T12:04:03;6.40;;;3.30;;
56399;SDS011;42298;53.638;9.876;2022-07-19T12:09:28;6.65;;;3.03;;
56399;SDS011;42298;53.638;9.876;2022-07-19T12:11:56;6.30;;;3.17;;
56399;SDS011;42298;53.638;9.876;2022-07-19T12:14:25;4.63;;;3.00;;
56399;SDS011;42298;53.638;9.876;2022-07-19T12:19:39;9.07;;;3.58;;
56399;SDS011;42298;53.638;9.876;2022-07-19T12:22:06;7.32;;;3.05;;
56399;SDS011;42298;53.638;9.876;2022-07-19T12:24:50;7.20;;;3.38;;
56399;SDS011;42298;53.638;9.876;2022-07-19T12:27:15;7.22;;;2.90;;
56399;SDS011;42298;53.638;9.876;2022-07-19T12:32:15;6.43;;;3.05;;
56399;SDS011;42298;53.638;9.876;2022-07-19T12:34:53;4.78;;;2.70;;
56399;SDS011;42298;53.638;9.876;2022-07-19T12:37:30;7.63;;;2.90;;
56399;SDS011;42298;53.638;9.876;2022-07-19T12:45:36;3.58;;;2.50;;
56399;SDS011;42298;53.638;9.876;2022-07-19T12:48:09;7.13;;;3.20;;
56399;SDS011;42298;53.638;9.876;2022-07-19T12:50:40;5.00;;;2.65;;
56399;SDS011;42298;53.638;9.876;2022-07-19T12:53:09;6.00;;;2.42;;
56399;SDS011;42298;53.638;9.876;2022-07-19T12:55:36;5.00;;;2.67;;
56399;SDS011;42298;53.638;9.876;2022-07-19T12:58:04;5.10;;;2.67;;
56399;SDS011;42298;53.638;9.876;2022-07-19T13:00:30;6.80;;;2.75;;
56399;SDS011;42298;53.638;9.876;2022-07-19T13:02:57;5.68;;;2.70;;
56399;SDS011;42298;53.638;9.876;2022-07-19T13:05:23;4.72;;;2.90;;
56399;SDS011;42298;53.638;9.876;2022-07-19T13:07:49;3.67;;;2.40;;
56399;SDS011;42298;53.638;9.876;2022-07-19T13:10:14;5.25;;;2.50;;
56399;SDS011;42298;53.638;9.876;2022-07-19T13:12:41;5.45;;;2.72;;
56399;SDS011;42298;53.638;9.876;2022-07-19T13:15:07;5.90;;;2.63;;
56399;SDS011;42298;53.638;9.876;2022-07-19T13:17:35;7.47;;;2.60;;
56399;SDS011;42298;53.638;9.876;2022-07-19T13:20:01;5.82;;;2.60;;
56399;SDS011;42298;53.638;9.876;2022-07-19T13:22:26;5.53;;;2.42;;
56399;SDS011;42298;53.638;9.876;2022-07-19T13:24:52;3.80;;;2.60;;
56399;SDS011;42298;53.638;9.876;2022-07-19T13:27:17;4.75;;;2.50;;
56399;SDS011;42298;53.638;9.876;2022-07-19T13:29:43;4.55;;;2.40;;
56399;SDS011;42298;53.638;9.876;2022-07-19T13:32:08;3.60;;;2.25;;
56399;SDS011;42298;53.638;9.876;2022-07-19T13:34:36;6.72;;;2.60;;
56399;SDS011;42298;53.638;9.876;2022-07-19T13:37:02;5.10;;;3.00;;
56399;SDS011;42298;53.638;9.876;2022-07-19T13:39:28;7.38;;;2.88;;
56399;SDS011;42298;53.638;9.876;2022-07-19T13:41:53;6.20;;;2.90;;
56399;SDS011;42298;53.638;9.876;2022-07-19T13:44:19;5.72;;;2.50;;
56399;SDS011;42298;53.638;9.876;2022-07-19T13:46:44;5.03;;;2.75;;
56399;SDS011;42298;53.638;9.876;2022-07-19T13:49:10;3.92;;;2.60;;
56399;SDS011;42298;53.638;9.876;2022-07-19T13:51:35;6.65;;;2.65;;
56399;SDS011;42298;53.638;9.876;2022-07-19T13:54:01;5.03;;;2.40;;
56399;SDS011;42298;53.638;9.876;2022-07-19T13:56:26;5.28;;;2.70;;
56399;SDS011;42298;53.638;9.876;2022-07-19T13:58:52;5.70;;;2.60;;
56399;SDS011;42298;53.638;9.876;2022-07-19T14:01:18;3.88;;;2.60;;
56399;SDS011;42298;53.638;9.876;2022-07-19T14:03:44;7.05;;;3.33;;
56399;SDS011;42298;53.638;9.876;2022-07-19T14:06:10;6.05;;;2.85;;
56399;SDS011;42298;53.638;9.876;2022-07-19T14:08:35;4.85;;;2.97;;
56399;SDS011;42298;53.638;9.876;2022-07-19T14:11:01;5.82;;;2.90;;
56399;SDS011;42298;53.638;9.876;2022-07-19T14:13:27;7.47;;;3.10;;
56399;SDS011;42298;53.638;9.876;2022-07-19T14:15:52;7.85;;;3.22;;
56399;SDS011;42298;53.638;9.876;2022-07-19T14:18:18;8.52;;;2.95;;
56399;SDS011;42298;53.638;9.876;2022-07-19T14:20:43;7.18;;;2.90;;
56399;SDS011;42298;53.638;9.876;2022-07-19T14:23:09;6.50;;;2.92;;
56399;SDS011;42298;53.638;9.876;2022-07-19T14:25:36;8.60;;;3.50;;
56399;SDS011;42298;53.638;9.876;2022-07-19T14:28:01;8.18;;;3.03;;
56399;SDS011;42298;53.638;9.876;2022-07-19T14:30:27;6.22;;;2.70;;
56399;SDS011;42298;53.638;9.876;2022-07-19T14:32:55;6.15;;;3.00;;
56399;SDS011;42298;53.638;9.876;2022-07-19T14:35:21;5.28;;;2.65;;
56399;SDS011;42298;53.638;9.876;2022-07-19T14:37:46;8.57;;;3.25;;
56399;SDS011;42298;53.638;9.876;2022-07-19T14:40:12;6.88;;;2.90;;
56399;SDS011;42298;53.638;9.876;2022-07-19T14:42:38;6.13;;;3.20;;
56399;SDS011;42298;53.638;9.876;2022-07-19T14:45:04;6.10;;;3.08;;
56399;SDS011;42298;53.638;9.876;2022-07-19T14:47:31;6.45;;;3.28;;
56399;SDS011;42298;53.638;9.876;2022-07-19T14:49:56;7.22;;;3.25;;
56399;SDS011;42298;53.638;9.876;2022-07-19T14:52:22;6.88;;;3.20;;
56399;SDS011;42298;53.638;9.876;2022-07-19T14:54:47;7.35;;;2.95;;
56399;SDS011;42298;53.638;9.876;2022-07-19T14:57:13;5.40;;;2.90;;
56399;SDS011;42298;53.638;9.876;2022-07-19T14:59:38;6.38;;;2.95;;
56399;SDS011;42298;53.638;9.876;2022-07-19T15:02:03;7.00;;;3.03;;
56399;SDS011;42298;53.638;9.876;2022-07-19T15:04:29;3.97;;;2.50;;
56399;SDS011;42298;53.638;9.876;2022-07-19T15:06:54;5.40;;;2.80;;
56399;SDS011;42298;53.638;9.876;2022-07-19T15:09:20;5.22;;;2.60;;
56399;SDS011;42298;53.638;9.876;2022-07-19T15:11:45;4.30;;;2.70;;
56399;SDS011;42298;53.638;9.876;2022-07-19T15:14:10;6.82;;;2.80;;
56399;SDS011;42298;53.638;9.876;2022-07-19T15:16:36;7.05;;;2.92;;
56399;SDS011;42298;53.638;9.876;2022-07-19T15:19:02;4.75;;;2.67;;
56399;SDS011;42298;53.638;9.876;2022-07-19T15:21:28;7.53;;;2.95;;